createdAt,value
2022-12-09T00:01:14.192Z,10.39
2022-12-09T00:02:13.043Z,10.30
2022-12-09T00:03:13.248Z,10.69
2022-12-09T00:04:13.205Z,10.10
2022-12-09T00:05:13.767Z,10.39
2022-12-09T00:06:14.505Z,9.800
2022-12-09T00:07:13.798Z,10.10
2022-12-09T00:08:13.655Z,11
2022-12-09T00:09:13.176Z,8
2022-12-09T00:10:13.865Z,8.899
2022-12-09T00:11:13.947Z,10.19
2022-12-09T00:12:14.258Z,10.60
2022-12-09T00:13:14.380Z,9.199
2022-12-09T00:14:14.457Z,8.300
2022-12-09T00:15:13.570Z,9
2022-12-09T00:16:18.753Z,8
2022-12-09T00:17:15.067Z,9.399
2022-12-09T00:18:18.941Z,9
2022-12-09T00:19:14.415Z,8.800
2022-12-09T00:20:15.152Z,8.899
2022-12-09T00:21:14.620Z,8.600
2022-12-09T00:22:18.498Z,8.399
2022-12-09T00:23:14.007Z,8.300
2022-12-09T00:24:13.346Z,8
2022-12-09T00:25:14.431Z,8.5
2022-12-09T00:26:13.522Z,9.899
2022-12-09T00:27:13.994Z,8.5
2022-12-09T00:28:13.876Z,7.5
2022-12-09T00:29:14.243Z,7.699
2022-12-09T00:30:15.008Z,8.300
2022-12-09T00:31:13.529Z,7.699
2022-12-09T00:32:13.784Z,9.199
2022-12-09T00:33:14.529Z,8.300
2022-12-09T00:34:13.427Z,8.5
2022-12-09T00:35:15.029Z,7.5
2022-12-09T00:36:14.003Z,9.300
2022-12-09T00:37:13.981Z,9.100
2022-12-09T00:38:14.024Z,8.199
2022-12-09T00:39:13.864Z,8.699
2022-12-09T00:40:13.912Z,9.300
2022-12-09T00:41:14.246Z,8.600
2022-12-09T00:43:14.035Z,8.699
2022-12-09T00:44:13.607Z,9.300
2022-12-09T00:45:13.764Z,8.699
2022-12-09T00:46:12.899Z,7.5
2022-12-09T00:47:13.501Z,8
2022-12-09T00:48:13.980Z,9
2022-12-09T00:49:13.368Z,10.10
2022-12-09T00:50:13.880Z,9.899
2022-12-09T00:51:13.566Z,8.399
2022-12-09T00:53:13.679Z,7.900
2022-12-09T00:54:14.371Z,8.5
2022-12-09T00:55:14.465Z,10.10
2022-12-09T00:56:14.544Z,10.19
2022-12-09T00:57:14.131Z,10.30
2022-12-09T00:58:13.955Z,8.899
2022-12-09T00:59:13.864Z,9.399
2022-12-09T01:00:14.779Z,9.699
2022-12-09T01:01:16.225Z,8.899
2022-12-09T01:02:14.312Z,9.5
2022-12-09T01:03:14.266Z,9
2022-12-09T01:04:14.116Z,9.600
2022-12-09T01:05:14.453Z,11
2022-12-09T01:06:13.909Z,9.800
2022-12-09T01:07:13.385Z,9.199
2022-12-09T01:08:13.740Z,9.399
2022-12-09T01:09:13.437Z,9.5
2022-12-09T01:10:14.046Z,9.300
2022-12-09T01:12:13.717Z,11.39
2022-12-09T01:13:13.205Z,10.5
2022-12-09T01:14:13.308Z,9.600
2022-12-09T01:15:13.605Z,9.399
2022-12-09T01:16:13.998Z,10.39
2022-12-09T01:17:14.344Z,9.899
2022-12-09T01:18:14.179Z,9.100
2022-12-09T01:20:13.773Z,8.100
2022-12-09T01:21:13.459Z,8.800
2022-12-09T01:22:13.826Z,8.300
2022-12-09T01:23:13.226Z,8
2022-12-09T01:24:13.152Z,8.600
2022-12-09T01:25:13.519Z,8.899
2022-12-09T01:26:13.953Z,8.199
2022-12-09T01:27:13.169Z,8.600
2022-12-09T01:29:13.535Z,9.5
2022-12-09T01:30:13.997Z,10.80
2022-12-09T01:31:13.890Z,9.600
2022-12-09T01:32:13.747Z,10
2022-12-09T01:33:13.298Z,9.600
2022-12-09T01:34:12.964Z,8.899
2022-12-09T01:35:12.909Z,8.5
2022-12-09T01:36:13.975Z,11.60
2022-12-09T01:37:12.817Z,9.800
2022-12-09T01:38:13.867Z,9.899
2022-12-09T01:39:12.735Z,10.30
2022-12-09T01:40:14.866Z,9.600
2022-12-09T01:41:13.526Z,10.5
2022-12-09T01:42:13.240Z,10.60
2022-12-09T01:43:12.880Z,10.89
2022-12-09T01:44:13.722Z,8.800
2022-12-09T01:45:15.136Z,9.300
2022-12-09T01:46:13.398Z,10.80
2022-12-09T01:47:14.448Z,9.199
2022-12-09T01:48:13.106Z,11.5
2022-12-09T01:49:13.308Z,10.69
2022-12-09T01:50:13.228Z,9.5
2022-12-09T01:51:13.192Z,10.10
2022-12-09T01:52:13.613Z,9.600
2022-12-09T01:53:12.614Z,10.80
2022-12-09T01:54:12.631Z,9.100
2022-12-09T01:55:13.517Z,10.5
2022-12-09T01:56:13.884Z,10.10
2022-12-09T01:57:14.119Z,9.5
2022-12-09T01:58:13.590Z,11.19
2022-12-09T01:59:14.161Z,10.60
2022-12-09T02:00:14.494Z,12.39
2022-12-09T02:01:13.940Z,11
2022-12-09T02:02:13.790Z,9.600
2022-12-09T02:03:13.623Z,9.300
2022-12-09T02:04:13.692Z,10.30
2022-12-09T02:05:13.881Z,10.80
2022-12-09T02:06:13.458Z,10.39
2022-12-09T02:07:13.418Z,10.89
2022-12-09T02:08:13.660Z,10.30
2022-12-09T02:09:14.190Z,10.69
2022-12-09T02:10:14.342Z,9.600
2022-12-09T02:11:13.572Z,9.300
2022-12-09T02:12:13.211Z,9.5
2022-12-09T02:13:13.182Z,9.100
2022-12-09T02:14:13.549Z,8.399
2022-12-09T02:15:14.140Z,9.399
2022-12-09T02:16:12.867Z,8.100
2022-12-09T02:17:13.291Z,8.5
2022-12-09T02:18:14.065Z,8.899
2022-12-09T02:19:14.347Z,9.100
2022-12-09T02:20:13.725Z,9.600
2022-12-09T02:21:13.794Z,8.899
2022-12-09T02:22:12.681Z,9.300
2022-12-09T02:23:13.916Z,8.199
2022-12-09T02:24:13.161Z,8.399
2022-12-09T02:25:13.369Z,8.899
2022-12-09T02:26:13.275Z,8.600
2022-12-09T02:27:14.036Z,9.600
2022-12-09T02:28:13.980Z,7.900
2022-12-09T02:29:13.738Z,10.60
2022-12-09T02:30:14.232Z,10
2022-12-09T02:31:13.748Z,9.699
2022-12-09T02:32:13.813Z,9.800
2022-12-09T02:33:13.363Z,9.100
2022-12-09T02:34:13.629Z,9.699
2022-12-09T02:35:13.550Z,11.10
2022-12-09T02:36:14.213Z,9.699
2022-12-09T02:37:13.323Z,10.19
2022-12-09T02:38:13.792Z,9.5
2022-12-09T02:39:14.012Z,10.69
2022-12-09T02:40:14.308Z,10.30
2022-12-09T02:41:13.875Z,9.600
2022-12-09T02:43:18.451Z,9.899
2022-12-09T02:44:13.672Z,9.399
2022-12-09T02:45:14.181Z,9.800
2022-12-09T02:46:13.303Z,10.80
2022-12-09T02:47:13.957Z,10.5
2022-12-09T02:48:13.090Z,9.399
2022-12-09T02:49:13.545Z,9.600
2022-12-09T02:50:14.696Z,9.899
2022-12-09T02:51:13.645Z,10.19
2022-12-09T02:52:13.275Z,9.899
2022-12-09T02:53:12.620Z,10
2022-12-09T02:54:14.178Z,11.80
2022-12-09T02:55:14.289Z,10
2022-12-09T02:56:13.190Z,10.5
2022-12-09T02:57:13.140Z,8.600
2022-12-09T02:58:13.070Z,10.69
2022-12-09T02:59:13.136Z,9.300
2022-12-09T03:00:14.427Z,9.699
2022-12-09T03:01:14.134Z,9.899
2022-12-09T03:02:13.288Z,10.89
2022-12-09T03:03:14.328Z,10.5
2022-12-09T03:04:13.448Z,9.899
2022-12-09T03:05:14.242Z,9.5
2022-12-09T03:06:13.814Z,9.899
2022-12-09T03:07:13.772Z,10.5
2022-12-09T03:08:13.417Z,9.399
2022-12-09T03:09:13.685Z,9.300
2022-12-09T03:10:14.009Z,9.5
2022-12-09T03:11:14.407Z,9.800
2022-12-09T03:12:13.288Z,9.100
2022-12-09T03:14:12.576Z,8.600
2022-12-09T03:15:13.123Z,9.300
2022-12-09T03:16:13.212Z,8.300
2022-12-09T03:17:13.755Z,8.5
2022-12-09T03:18:13.000Z,9.399
2022-12-09T03:19:13.656Z,8.899
2022-12-09T03:20:14.386Z,8.800
2022-12-09T03:21:13.462Z,10.5
2022-12-09T03:22:13.138Z,8.699
2022-12-09T03:23:13.273Z,8.399
2022-12-09T03:24:13.538Z,8.199
2022-12-09T03:25:14.005Z,8.899
2022-12-09T03:26:13.181Z,8.699
2022-12-09T03:27:13.400Z,9.100
2022-12-09T03:29:14.273Z,9.800
2022-12-09T03:30:14.141Z,9.300
2022-12-09T03:31:13.888Z,9.199
2022-12-09T03:32:13.336Z,9.600
2022-12-09T03:33:13.584Z,10.80
2022-12-09T03:34:12.748Z,9.600
2022-12-09T03:35:13.834Z,9.100
2022-12-09T03:36:12.695Z,10.19
2022-12-09T03:37:13.747Z,11
2022-12-09T03:38:13.508Z,9.699
2022-12-09T03:39:13.490Z,9.899
2022-12-09T03:40:14.305Z,10
2022-12-09T03:41:13.028Z,8.800
2022-12-09T03:42:13.552Z,8.600
2022-12-09T03:43:13.382Z,8.899
2022-12-09T03:44:13.239Z,9.199
2022-12-09T03:45:13.594Z,9.5
2022-12-09T03:46:13.103Z,9.699
2022-12-09T03:47:13.258Z,9.199
2022-12-09T03:48:13.261Z,9.699
2022-12-09T03:49:13.576Z,9.300
2022-12-09T03:50:13.380Z,9.899
2022-12-09T03:51:12.731Z,9.800
2022-12-09T03:52:13.467Z,10.30
2022-12-09T03:53:13.019Z,9.899
2022-12-09T03:54:13.439Z,10.10
2022-12-09T03:55:13.105Z,9.800
2022-12-09T03:56:12.983Z,8.5
2022-12-09T03:57:17.080Z,8.600
2022-12-09T03:58:14.391Z,8.899
2022-12-09T03:59:13.841Z,9.699
2022-12-09T04:00:14.851Z,9.300
2022-12-09T04:01:14.500Z,9.5
2022-12-09T04:02:13.634Z,9.300
2022-12-09T04:03:14.695Z,9
2022-12-09T04:04:14.007Z,9.899
2022-12-09T04:05:14.582Z,8.899
2022-12-09T04:06:14.203Z,9
2022-12-09T04:07:13.772Z,8.699
2022-12-09T04:08:13.054Z,9.199
2022-12-09T04:09:14.257Z,8.600
2022-12-09T04:10:13.603Z,8.899
2022-12-09T04:11:13.821Z,9.5
2022-12-09T04:12:13.479Z,9.100
2022-12-09T04:13:14.370Z,9.699
2022-12-09T04:14:15.748Z,8.899
2022-12-09T04:15:13.904Z,9.300
2022-12-09T04:16:13.414Z,9.600
2022-12-09T04:17:14.642Z,9
2022-12-09T04:18:14.661Z,10.10
2022-12-09T04:19:13.809Z,9.5
2022-12-09T04:20:14.036Z,8.899
2022-12-09T04:21:13.401Z,8.399
2022-12-09T04:22:14.010Z,8.600
2022-12-09T04:23:14.551Z,9.699
2022-12-09T04:24:14.936Z,9.300
2022-12-09T04:25:15.107Z,8.600
2022-12-09T04:26:14.887Z,9.100
2022-12-09T04:27:14.711Z,8
2022-12-09T04:28:14.036Z,8.899
2022-12-09T04:29:13.997Z,11
2022-12-09T04:30:14.047Z,8.5
2022-12-09T04:31:14.687Z,9.300
2022-12-09T04:33:13.445Z,8.699
2022-12-09T04:34:13.948Z,9.100
2022-12-09T04:35:12.661Z,10.10
2022-12-09T04:36:13.176Z,8.699
2022-12-09T04:37:13.942Z,8.899
2022-12-09T04:38:14.193Z,9.300
2022-12-09T04:39:13.423Z,9.100
2022-12-09T04:40:18.207Z,9.399
2022-12-09T04:41:13.220Z,9
2022-12-09T04:42:13.274Z,8.800
2022-12-09T04:43:13.988Z,8.699
2022-12-09T04:44:13.041Z,9.100
2022-12-09T04:45:13.772Z,9.399
2022-12-09T04:46:12.805Z,8.199
2022-12-09T04:47:13.558Z,9.600
2022-12-09T04:48:13.179Z,8.899
2022-12-09T04:49:13.107Z,10.30
2022-12-09T04:50:13.960Z,10.10
2022-12-09T04:51:13.730Z,8.800
2022-12-09T04:52:13.717Z,9.699
2022-12-09T04:53:13.341Z,10.30
2022-12-09T04:54:13.072Z,8.899
2022-12-09T04:55:13.172Z,8.5
2022-12-09T04:56:12.820Z,9.699
2022-12-09T04:57:13.774Z,10.19
2022-12-09T04:58:13.693Z,9.100
2022-12-09T04:59:13.483Z,8.399
2022-12-09T05:00:15.188Z,9.800
2022-12-09T05:01:13.240Z,10.19
2022-12-09T05:02:13.565Z,9.399
2022-12-09T05:03:13.650Z,9.800
2022-12-09T05:04:13.991Z,10.5
2022-12-09T05:05:13.986Z,9.899
2022-12-09T05:07:13.203Z,9.399
2022-12-09T05:08:13.955Z,8.800
2022-12-09T05:09:14.287Z,9.199
2022-12-09T05:10:14.395Z,9.600
2022-12-09T05:11:14.030Z,8.300
2022-12-09T05:12:13.611Z,9.199
2022-12-09T05:13:13.561Z,9.300
2022-12-09T05:15:13.251Z,8.600
2022-12-09T05:16:16.991Z,9.399
2022-12-09T05:17:14.422Z,9.300
2022-12-09T05:18:19.641Z,10.19
2022-12-09T05:19:13.954Z,9.399
2022-12-09T05:20:14.660Z,10.19
2022-12-09T05:21:13.135Z,9.300
2022-12-09T05:23:13.762Z,9.199
2022-12-09T05:24:13.749Z,8.5
2022-12-09T05:25:14.466Z,10.69
2022-12-09T05:26:13.926Z,9.5
2022-12-09T05:27:13.175Z,9.300
2022-12-09T05:28:13.938Z,8.699
2022-12-09T05:29:17.912Z,10.60
2022-12-09T05:30:14.840Z,9
2022-12-09T05:31:13.836Z,9.899
2022-12-09T05:32:13.217Z,9.300
2022-12-09T05:33:14.564Z,10.5
2022-12-09T05:34:13.066Z,10.89
2022-12-09T05:35:13.838Z,9.899
2022-12-09T05:36:13.169Z,11.19
2022-12-09T05:37:14.039Z,10.89
2022-12-09T05:38:14.053Z,11.30
2022-12-09T05:39:12.948Z,11.60
2022-12-09T05:40:14.161Z,12
2022-12-09T05:41:14.743Z,8.600
2022-12-09T05:42:13.339Z,11
2022-12-09T05:43:13.894Z,10.10
2022-12-09T05:44:12.996Z,9.600
2022-12-09T05:45:13.149Z,10.80
2022-12-09T05:46:13.175Z,9.899
2022-12-09T05:47:14.175Z,10.19
2022-12-09T05:48:13.346Z,10.5
2022-12-09T05:49:12.839Z,10
2022-12-09T05:50:13.952Z,9.800
2022-12-09T05:51:13.138Z,11.19
2022-12-09T05:52:13.921Z,9.5
2022-12-09T05:53:13.455Z,10.10
2022-12-09T05:54:13.649Z,9.300
2022-12-09T05:55:14.252Z,10.10
2022-12-09T05:56:13.985Z,9.899
2022-12-09T05:58:13.217Z,10.30
2022-12-09T05:59:13.237Z,9.899
2022-12-09T06:00:14.692Z,9.800
2022-12-09T06:02:14.034Z,9.5
2022-12-09T06:03:14.450Z,9.399
2022-12-09T06:05:14.019Z,9.5
2022-12-09T06:06:13.754Z,10
2022-12-09T06:07:14.311Z,9.699
2022-12-09T06:08:13.421Z,9.600
2022-12-09T06:09:14.185Z,9.800
2022-12-09T06:10:14.526Z,10
2022-12-09T06:11:12.967Z,10.30
2022-12-09T06:12:13.035Z,10
2022-12-09T06:13:12.831Z,10.19
2022-12-09T06:14:13.393Z,11.89
2022-12-09T06:15:18.735Z,9.600
2022-12-09T06:16:13.819Z,10.19
2022-12-09T06:17:14.338Z,9.699
2022-12-09T06:18:13.153Z,9.5
2022-12-09T06:19:13.420Z,9.600
2022-12-09T06:20:14.563Z,9.899
2022-12-09T06:21:14.085Z,10.19
2022-12-09T06:22:13.957Z,9.199
2022-12-09T06:23:14.271Z,9.300
2022-12-09T06:24:13.767Z,10.39
2022-12-09T06:25:14.651Z,8.899
2022-12-09T06:26:13.738Z,9.199
2022-12-09T06:27:13.492Z,9.300
2022-12-09T06:28:14.198Z,10.19
2022-12-09T06:29:13.980Z,9.800
2022-12-09T06:30:15.006Z,11.30
2022-12-09T06:31:13.318Z,11.80
2022-12-09T06:32:14.408Z,11.39
2022-12-09T06:33:37.284Z,11.69
2022-12-09T06:34:13.827Z,10.10
2022-12-09T06:35:14.287Z,12.60
2022-12-09T06:36:13.797Z,11
2022-12-09T06:37:13.273Z,12
2022-12-09T06:38:14.747Z,11
2022-12-09T06:40:14.001Z,11.39
2022-12-09T06:41:13.673Z,11.10
2022-12-09T06:42:13.181Z,11.39
2022-12-09T06:43:13.382Z,11
2022-12-09T06:44:20.019Z,11.5
2022-12-09T06:45:14.515Z,11.10
2022-12-09T06:46:14.032Z,9.899
2022-12-09T06:47:13.464Z,11.5
2022-12-09T06:48:13.195Z,11.10
2022-12-09T06:49:14.377Z,10.69
2022-12-09T06:50:13.920Z,9.699
2022-12-09T06:51:13.053Z,10.39
2022-12-09T06:52:13.564Z,11.39
2022-12-09T06:55:14.643Z,10.5
2022-12-09T06:56:14.312Z,11.69
2022-12-09T06:57:14.453Z,9.5
2022-12-09T06:58:14.545Z,10.39
2022-12-09T06:59:15.011Z,10.60
2022-12-09T07:00:15.370Z,10.19
2022-12-09T07:01:14.773Z,10.69
2022-12-09T07:02:14.634Z,11.19
2022-12-09T07:03:14.799Z,11.60
2022-12-09T07:04:13.980Z,11.10
2022-12-09T07:05:14.334Z,10.30
2022-12-09T07:06:13.612Z,10.80
2022-12-09T07:07:13.602Z,11
2022-12-09T07:08:13.499Z,10.89
2022-12-09T07:09:13.967Z,11.30
2022-12-09T07:10:14.602Z,10.5
2022-12-09T07:12:13.951Z,10.19
2022-12-09T07:13:13.947Z,9.899
2022-12-09T07:14:14.155Z,10
2022-12-09T07:15:15.166Z,10.60
2022-12-09T07:16:14.350Z,10.69
2022-12-09T07:17:14.732Z,10.10
2022-12-09T07:18:13.863Z,11
2022-12-09T07:19:14.900Z,11.39
2022-12-09T07:20:14.853Z,11
2022-12-09T07:21:13.411Z,12
2022-12-09T07:22:13.367Z,11.60
2022-12-09T07:24:14.028Z,11.69
2022-12-09T07:25:13.983Z,11.10
2022-12-09T07:26:14.458Z,11.39
2022-12-09T07:27:19.271Z,10.89
2022-12-09T07:28:14.035Z,12
2022-12-09T07:29:13.541Z,12.19
2022-12-09T07:30:14.261Z,13.10
2022-12-09T07:31:13.786Z,12.80
2022-12-09T07:32:14.659Z,13.10
2022-12-09T07:33:13.279Z,12.69
2022-12-09T07:34:13.662Z,12.60
2022-12-09T07:35:15.646Z,13.5
2022-12-09T07:36:19.170Z,13
2022-12-09T07:37:18.834Z,12.69
2022-12-09T07:39:14.732Z,13.19
2022-12-09T07:40:14.407Z,12
2022-12-09T07:41:13.627Z,12.5
2022-12-09T07:42:13.375Z,12.69
2022-12-09T07:43:13.335Z,12.19
2022-12-09T07:44:14.635Z,12.69
2022-12-09T07:45:22.101Z,11.69
2022-12-09T07:46:13.590Z,12.89
2022-12-09T07:47:14.146Z,12.30
2022-12-09T07:48:13.610Z,12.60
2022-12-09T07:49:21.869Z,12.10
2022-12-09T07:50:14.971Z,13.19
2022-12-09T07:51:14.139Z,11.80
2022-12-09T07:52:14.021Z,13
2022-12-09T07:53:14.890Z,12.30
2022-12-09T07:54:14.578Z,13.60
2022-12-09T07:55:15.521Z,13.39
2022-12-09T07:56:13.951Z,11.89
2022-12-09T07:57:14.323Z,14.5
2022-12-09T07:58:13.620Z,12.10
2022-12-09T07:59:13.790Z,12.19
2022-12-09T08:00:14.706Z,12
2022-12-09T08:01:28.361Z,12.19
2022-12-09T08:02:14.176Z,12.80
2022-12-09T08:03:14.016Z,12.30
2022-12-09T08:04:14.462Z,14.30
2022-12-09T08:05:15.181Z,12.10
2022-12-09T08:06:13.960Z,12.30
2022-12-09T08:07:14.149Z,12.69
2022-12-09T08:09:13.990Z,11.89
2022-12-09T08:10:14.066Z,12.69
2022-12-09T08:11:14.782Z,12.80
2022-12-09T08:12:15.142Z,12
2022-12-09T08:13:14.265Z,12.5
2022-12-09T08:14:14.172Z,13.19
2022-12-09T08:15:15.073Z,12
2022-12-09T08:16:14.400Z,13.39
2022-12-09T08:17:14.196Z,12.5
2022-12-09T08:18:13.678Z,12.80
2022-12-09T08:19:14.596Z,12.89
2022-12-09T08:20:15.593Z,12.19
2022-12-09T08:21:14.165Z,12.60
2022-12-09T08:22:14.743Z,13.60
2022-12-09T08:23:14.322Z,12.19
2022-12-09T08:24:14.648Z,12.30
2022-12-09T08:25:15.125Z,11.69
2022-12-09T08:26:15.276Z,13
2022-12-09T08:27:14.068Z,11.80
2022-12-09T08:28:15.059Z,12
2022-12-09T08:29:14.316Z,13.30
2022-12-09T08:30:15.072Z,12.39
2022-12-09T08:31:14.558Z,13.19
2022-12-09T08:32:14.378Z,15.39
2022-12-09T08:33:14.977Z,13.5
2022-12-09T08:34:14.436Z,12.5
2022-12-09T08:35:13.763Z,13.10
2022-12-09T08:36:14.519Z,12.60
2022-12-09T08:37:13.995Z,14.10
2022-12-09T08:38:14.333Z,13.10
2022-12-09T08:41:14.492Z,12.30
2022-12-09T08:43:13.392Z,11.39
2022-12-09T08:44:13.672Z,11
2022-12-09T08:45:13.930Z,12.60
2022-12-09T08:46:14.205Z,12.19
2022-12-09T08:47:14.775Z,12.30
2022-12-09T08:48:14.298Z,12
2022-12-09T08:49:14.498Z,12.30
2022-12-09T08:50:15.015Z,11.89
2022-12-09T08:51:14.582Z,11.5
2022-12-09T08:52:14.355Z,11.30
2022-12-09T08:53:14.621Z,10.19
2022-12-09T08:54:14.600Z,11.80
2022-12-09T08:55:15.218Z,11.39
2022-12-09T08:56:15.477Z,11.89
2022-12-09T08:57:15.492Z,12.39
2022-12-09T08:58:14.222Z,12.89
2022-12-09T08:59:13.795Z,16.5
2022-12-09T09:00:15.157Z,12.69
2022-12-09T09:01:14.137Z,15
2022-12-09T09:02:14.653Z,15.10
2022-12-09T09:03:14.889Z,14.60
2022-12-09T09:04:14.632Z,13.5
2022-12-09T09:05:14.521Z,20.79
2022-12-09T09:06:14.808Z,18
2022-12-09T09:07:14.041Z,18.70
2022-12-09T09:08:13.512Z,14.30
2022-12-09T09:09:14.324Z,13.30
2022-12-09T09:10:14.827Z,14.5
2022-12-09T09:11:13.463Z,14.39
2022-12-09T09:12:14.111Z,16.5
2022-12-09T09:13:14.373Z,14.30
2022-12-09T09:14:14.109Z,14.5
2022-12-09T09:15:15.815Z,13.80
2022-12-09T09:16:14.933Z,17.5
2022-12-09T09:17:13.760Z,13.39
2022-12-09T09:18:14.228Z,15
2022-12-09T09:19:14.950Z,16.39
2022-12-09T09:20:14.880Z,16.10
2022-12-09T09:21:13.949Z,15.30
2022-12-09T09:22:14.435Z,15.80
2022-12-09T09:23:13.256Z,15.39
2022-12-09T09:24:14.213Z,16.29
2022-12-09T09:25:15.066Z,14.19
2022-12-09T09:26:14.465Z,16
2022-12-09T09:27:14.769Z,15.19
2022-12-09T09:28:13.682Z,17.39
2022-12-09T09:29:13.707Z,15
2022-12-09T09:30:14.534Z,16
2022-12-09T09:31:14.348Z,14.10
2022-12-09T09:32:13.357Z,16.20
2022-12-09T09:33:13.982Z,16.10
2022-12-09T09:34:14.229Z,13
2022-12-09T09:35:13.839Z,15.39
2022-12-09T09:36:14.941Z,14.80
2022-12-09T09:37:14.112Z,14.30
2022-12-09T09:38:14.042Z,15.10
2022-12-09T09:40:14.400Z,15.80
2022-12-09T09:41:13.945Z,15.10
2022-12-09T09:42:14.176Z,15
2022-12-09T09:43:13.636Z,17.5
2022-12-09T09:44:14.076Z,13.69
2022-12-09T09:45:13.911Z,16.29
2022-12-09T09:46:13.910Z,14.89
2022-12-09T09:47:13.923Z,13.30
2022-12-09T09:48:14.078Z,13.19
2022-12-09T09:49:13.895Z,12.30
2022-12-09T09:50:13.404Z,13.39
2022-12-09T09:51:13.860Z,11.60
2022-12-09T09:52:14.555Z,15.19
2022-12-09T09:53:14.159Z,12.80
2022-12-09T09:54:13.398Z,15.10
2022-12-09T09:55:13.916Z,14.69
2022-12-09T09:56:13.762Z,13.69
2022-12-09T09:57:14.423Z,12.60
2022-12-09T09:58:13.708Z,13.10
2022-12-09T10:00:20.151Z,12.39
2022-12-09T10:01:13.767Z,12.19
2022-12-09T10:02:13.855Z,12.80
2022-12-09T10:03:14.236Z,13.30
2022-12-09T10:04:14.067Z,12.30
2022-12-09T10:05:14.627Z,12.19
2022-12-09T10:06:13.776Z,12.89
2022-12-09T10:07:13.384Z,12.39
2022-12-09T10:08:13.536Z,12.5
2022-12-09T10:09:14.233Z,11.39
2022-12-09T10:10:21.526Z,14.10
2022-12-09T10:11:13.923Z,13.5
2022-12-09T10:12:13.516Z,14.39
2022-12-09T10:13:18.355Z,12.39
2022-12-09T10:14:14.066Z,13.69
2022-12-09T10:15:15.080Z,13.19
2022-12-09T10:16:14.336Z,12.5
2022-12-09T10:17:14.524Z,15
2022-12-09T10:18:14.606Z,13
2022-12-09T10:19:14.777Z,12.69
2022-12-09T10:20:29.566Z,13
2022-12-09T10:21:15.088Z,12.39
2022-12-09T10:22:13.787Z,12.19
2022-12-09T10:23:14.748Z,14.39
2022-12-09T10:24:14.979Z,13.60
2022-12-09T10:25:14.133Z,13.89
2022-12-09T10:26:14.356Z,13
2022-12-09T10:27:14.052Z,12
2022-12-09T10:28:13.710Z,12.60
2022-12-09T10:29:14.215Z,13.10
2022-12-09T10:30:15.628Z,12.60
2022-12-09T10:31:13.688Z,13.89
2022-12-09T10:32:13.057Z,12.69
2022-12-09T10:33:15.140Z,14.10
2022-12-09T10:34:14.395Z,14.19
2022-12-09T10:35:14.291Z,14.30
2022-12-09T10:36:14.250Z,14
2022-12-09T10:37:14.666Z,13.80
2022-12-09T10:38:14.072Z,13.39
2022-12-09T10:39:14.093Z,14.5
2022-12-09T10:40:15.122Z,13.69
2022-12-09T10:41:15.277Z,14.69
2022-12-09T10:42:14.716Z,15.10
2022-12-09T10:43:13.818Z,13
2022-12-09T10:44:14.199Z,14.39
2022-12-09T10:45:14.493Z,14.60
2022-12-09T10:46:19.225Z,12
2022-12-09T10:47:13.603Z,13.60
2022-12-09T10:48:13.951Z,12.80
2022-12-09T10:50:15.392Z,13.80
2022-12-09T10:51:14.170Z,11.89
2022-12-09T10:52:14.085Z,12.89
2022-12-09T10:53:14.317Z,12.80
2022-12-09T10:54:17.899Z,13
2022-12-09T10:55:13.968Z,12.30
2022-12-09T10:56:14.453Z,13.5
2022-12-09T10:57:14.572Z,12.60
2022-12-09T10:58:14.381Z,12.5
2022-12-09T10:59:13.877Z,12.19
2022-12-09T11:00:15.449Z,12.60
2022-12-09T11:01:14.047Z,11.89
2022-12-09T11:03:14.560Z,12.19
2022-12-09T11:04:13.529Z,13.60
2022-12-09T11:05:14.900Z,11.80
2022-12-09T11:06:14.337Z,13
2022-12-09T11:07:14.087Z,13.5
2022-12-09T11:08:13.728Z,11.80
2022-12-09T11:09:14.542Z,13.5
2022-12-09T11:10:15.283Z,12.39
2022-12-09T11:11:13.789Z,12.80
2022-12-09T11:12:14.208Z,12.5
2022-12-09T11:13:14.537Z,15.5
2022-12-09T11:14:13.973Z,14.10
2022-12-09T11:15:14.164Z,13.5
2022-12-09T11:16:15.084Z,12.19
2022-12-09T11:17:14.609Z,11.19
2022-12-09T11:18:14.327Z,13
2022-12-09T11:19:13.600Z,13.19
2022-12-09T11:20:14.392Z,14
2022-12-09T11:21:14.403Z,12.89
2022-12-09T11:23:14.635Z,12.30
2022-12-09T11:24:14.832Z,12.60
2022-12-09T11:25:14.068Z,12.19
2022-12-09T11:26:14.471Z,14
2022-12-09T11:27:14.244Z,12.30
2022-12-09T11:28:13.778Z,13
2022-12-09T11:29:14.092Z,12.60
2022-12-09T11:30:14.309Z,12.69
2022-12-09T11:31:29.158Z,11.10
2022-12-09T11:32:13.641Z,12.19
2022-12-09T11:33:13.382Z,12.39
2022-12-09T11:34:13.334Z,12.80
2022-12-09T11:35:13.673Z,14.80
2022-12-09T11:36:13.580Z,13.10
2022-12-09T11:37:14.281Z,13.39
2022-12-09T11:38:14.409Z,13.30
2022-12-09T11:39:14.449Z,13.80
2022-12-09T11:40:14.222Z,11.69
2022-12-09T11:41:13.958Z,14
2022-12-09T11:42:16.976Z,13.80
2022-12-09T11:43:14.174Z,14.69
2022-12-09T11:44:13.396Z,15.5
2022-12-09T11:46:13.641Z,15.80
2022-12-09T11:47:14.628Z,15.5
2022-12-09T11:48:27.721Z,17.10
2022-12-09T11:49:12.474Z,14.69
2022-12-09T11:50:14.260Z,13.19
2022-12-09T11:51:14.090Z,13.5
2022-12-09T11:52:13.596Z,14.19
2022-12-09T11:53:14.305Z,13
2022-12-09T11:55:14.159Z,14.5
2022-12-09T11:56:13.926Z,14.30
2022-12-09T11:57:15.251Z,14
2022-12-09T11:58:15.016Z,14.69
2022-12-09T11:59:14.780Z,15.30
2022-12-09T12:00:14.635Z,15.39
2022-12-09T12:01:13.422Z,18.60
2022-12-09T12:02:13.733Z,13.80
2022-12-09T12:03:14.006Z,16.5
2022-12-09T12:04:13.562Z,16.20
2022-12-09T12:05:16.888Z,15.10
2022-12-09T12:06:13.903Z,14.19
2022-12-09T12:07:13.044Z,16.89
2022-12-09T12:08:13.478Z,14.10
2022-12-09T12:09:13.779Z,13.60
2022-12-09T12:10:13.596Z,13.69
2022-12-09T12:11:15.704Z,15.60
2022-12-09T12:12:13.699Z,14.19
2022-12-09T12:13:13.897Z,15.5
2022-12-09T12:14:14.073Z,15.69
2022-12-09T12:15:13.736Z,15.89
2022-12-09T12:16:13.577Z,15.5
2022-12-09T12:17:15.085Z,16
2022-12-09T12:18:13.615Z,14.80
2022-12-09T12:19:13.790Z,15.39
2022-12-09T12:20:14.507Z,16
2022-12-09T12:21:13.308Z,14.69
2022-12-09T12:22:14.192Z,15
2022-12-09T12:23:14.427Z,15.69
2022-12-09T12:24:13.864Z,16.39
2022-12-09T12:25:18.983Z,16.10
2022-12-09T12:26:13.343Z,16.70
2022-12-09T12:27:14.374Z,14.39
2022-12-09T12:28:13.588Z,14.60
2022-12-09T12:29:14.188Z,15.80
2022-12-09T12:30:13.764Z,13.80
2022-12-09T12:31:18.864Z,15.80
2022-12-09T12:32:13.568Z,16.79
2022-12-09T12:34:00.425Z,15.19
2022-12-09T12:34:24.951Z,15.69
2022-12-09T12:35:14.340Z,15.89
2022-12-09T12:36:13.284Z,14.89
2022-12-09T12:37:13.865Z,16
2022-12-09T12:38:13.259Z,14.69
2022-12-09T12:39:13.939Z,13.89
2022-12-09T12:40:13.943Z,14.69
2022-12-09T12:41:14.025Z,16.70
2022-12-09T12:42:14.008Z,15.19
2022-12-09T12:43:27.510Z,13.60
2022-12-09T12:44:13.867Z,14.80
2022-12-09T12:45:13.494Z,15.39
2022-12-09T12:46:13.906Z,15.10
2022-12-09T12:47:13.837Z,16.70
2022-12-09T12:48:14.639Z,14.89
2022-12-09T12:49:14.054Z,16.10
2022-12-09T12:50:13.499Z,14
2022-12-09T12:51:14.194Z,14.10
2022-12-09T12:52:47.011Z,16
2022-12-09T12:53:13.334Z,15.5
2022-12-09T12:54:14.007Z,14.19
2022-12-09T12:55:14.520Z,14.60
2022-12-09T12:56:13.843Z,17.79
2022-12-09T12:57:13.564Z,13.30
2022-12-09T12:58:13.902Z,13.60
2022-12-09T12:59:13.071Z,16.5
2022-12-09T13:00:14.588Z,14.60
2022-12-09T13:01:13.673Z,17.5
2022-12-09T13:02:13.616Z,15.80
2022-12-09T13:03:13.619Z,13.69
2022-12-09T13:04:14.354Z,15.19
2022-12-09T13:05:14.424Z,14.30
2022-12-09T13:06:13.892Z,15.30
2022-12-09T13:07:13.764Z,15.5
2022-12-09T13:08:13.283Z,13.60
2022-12-09T13:09:13.469Z,14.80
2022-12-09T13:10:14.455Z,16.79
2022-12-09T13:11:14.471Z,16.39
2022-12-09T13:12:14.164Z,15.60
2022-12-09T13:13:13.554Z,18.39
2022-12-09T13:14:14.359Z,15.30
2022-12-09T13:15:14.045Z,15.19
2022-12-09T13:16:14.055Z,14.30
2022-12-09T13:17:13.682Z,16.39
2022-12-09T13:18:13.241Z,15
2022-12-09T13:19:13.703Z,14.69
2022-12-09T13:20:14.826Z,17.29
2022-12-09T13:21:14.773Z,15.60
2022-12-09T13:22:13.543Z,15.19
2022-12-09T13:23:14.035Z,16.29
2022-12-09T13:24:13.599Z,15.30
2022-12-09T13:25:14.352Z,16.89
2022-12-09T13:26:13.714Z,15.60
2022-12-09T13:27:14.003Z,14.30
2022-12-09T13:28:13.636Z,15.5
2022-12-09T13:29:14.437Z,15.39
2022-12-09T13:30:14.493Z,15
2022-12-09T13:31:13.963Z,16.89
2022-12-09T13:32:13.750Z,15.39
2022-12-09T13:33:13.856Z,16.79
2022-12-09T13:34:13.966Z,17.5
2022-12-09T13:35:13.530Z,16.89
2022-12-09T13:36:13.183Z,16.79
2022-12-09T13:37:12.843Z,18.10
2022-12-09T13:38:14.130Z,18.70